createdAt,value
2019-05-20T00:00:50.742Z,71.82
2019-05-20T00:03:21.814Z,71.47
2019-05-20T00:05:53.044Z,71.58
2019-05-20T00:08:24.091Z,72.02
2019-05-20T00:10:55.215Z,72.19
2019-05-20T00:13:26.247Z,72.49
2019-05-20T00:15:57.271Z,72.69
2019-05-20T00:18:28.301Z,72.21
2019-05-20T00:20:59.324Z,72.19
2019-05-20T00:23:30.352Z,71.88
2019-05-20T00:26:02.106Z,72.05
2019-05-20T00:28:33.457Z,72.58
2019-05-20T00:31:04.488Z,72.90
2019-05-20T00:33:35.504Z,72.72
2019-05-20T00:36:06.867Z,72.42
2019-05-20T00:38:37.960Z,72.57
2019-05-20T00:41:08.974Z,72.92
2019-05-20T00:43:39.999Z,72.94
2019-05-20T00:46:11.000Z,73.13
2019-05-20T00:48:42.361Z,72.89
2019-05-20T00:51:13.530Z,72.86
2019-05-20T00:53:44.567Z,72.96
2019-05-20T00:56:15.559Z,73.12
2019-05-20T00:58:46.585Z,73.21
2019-05-20T01:01:17.681Z,73.00
2019-05-20T01:03:48.725Z,73.11
2019-05-20T01:06:19.728Z,72.47
2019-05-20T01:08:50.768Z,72.70
2019-05-20T01:11:21.833Z,72.69
2019-05-20T01:13:53.063Z,73.09
2019-05-20T01:16:24.310Z,72.53
2019-05-20T01:18:56.367Z,72.38
2019-05-20T01:21:27.448Z,72.78
2019-05-20T01:23:58.546Z,72.71
2019-05-20T01:26:29.672Z,72.38
2019-05-20T01:29:00.759Z,72.24
2019-05-20T01:31:32.752Z,72.91
2019-05-20T01:34:03.939Z,72.24
2019-05-20T01:36:34.946Z,71.79
2019-05-20T01:39:07.391Z,71.96
2019-05-20T01:41:38.398Z,71.84
2019-05-20T01:44:09.466Z,72.02
2019-05-20T01:46:40.471Z,72.31
2019-05-20T01:49:11.502Z,71.71
2019-05-20T01:51:42.552Z,71.74
2019-05-20T01:54:13.817Z,72.02
2019-05-20T01:56:44.794Z,72.37
2019-05-20T01:59:15.817Z,72.43
2019-05-20T02:01:46.804Z,72.48
2019-05-20T02:04:18.007Z,72.03
2019-05-20T02:06:49.264Z,72.58
2019-05-20T02:09:21.587Z,72.99
2019-05-20T02:11:52.801Z,73.37
2019-05-20T02:14:25.656Z,72.92
2019-05-20T02:16:57.909Z,72.96
2019-05-20T02:19:28.916Z,72.76
2019-05-20T02:21:59.884Z,73.01
2019-05-20T02:24:31.012Z,72.75
2019-05-20T02:27:02.385Z,72.54
2019-05-20T02:29:33.399Z,72.41
2019-05-20T02:32:04.381Z,73.05
2019-05-20T02:34:35.400Z,72.86
2019-05-20T02:37:06.464Z,72.25
2019-05-20T02:39:37.598Z,72.17
2019-05-20T02:42:08.736Z,72.10
2019-05-20T02:44:39.745Z,72.30
2019-05-20T02:47:10.815Z,72.13
2019-05-20T02:49:41.860Z,72.21
2019-05-20T02:52:12.865Z,72.19
2019-05-20T02:54:43.894Z,72.42
2019-05-20T02:57:15.001Z,72.72
2019-05-20T02:59:46.028Z,73.43
2019-05-20T03:02:17.016Z,73.47
2019-05-20T03:04:48.035Z,72.83
2019-05-20T03:07:19.020Z,73.20
2019-05-20T03:09:50.052Z,72.86
2019-05-20T03:12:21.799Z,73.00
2019-05-20T03:14:52.866Z,72.95
2019-05-20T03:17:23.945Z,73.21
2019-05-20T03:19:55.085Z,73.08
2019-05-20T03:22:26.224Z,73.05
2019-05-20T03:24:57.262Z,73.05
2019-05-20T03:27:28.232Z,73.21
2019-05-20T03:29:59.260Z,73.08
2019-05-20T03:32:30.247Z,72.65
2019-05-20T03:35:02.865Z,72.61
2019-05-20T03:37:33.906Z,72.41
2019-05-20T03:40:05.248Z,72.41
2019-05-20T03:42:36.357Z,72.33
2019-05-20T03:45:07.820Z,72.79
2019-05-20T03:47:38.808Z,72.98
2019-05-20T03:50:10.284Z,72.76
2019-05-20T03:52:41.283Z,72.82
2019-05-20T03:55:12.381Z,73.09
2019-05-20T03:57:43.381Z,73.62
2019-05-20T04:00:14.909Z,73.54
2019-05-20T04:02:45.971Z,73.58
2019-05-20T04:05:17.060Z,73.56
2019-05-20T04:07:48.043Z,73.77
2019-05-20T04:10:19.206Z,73.37
2019-05-20T04:12:50.197Z,73.60
2019-05-20T04:15:21.813Z,73.80
2019-05-20T04:17:52.810Z,74.16
2019-05-20T04:20:23.914Z,74.25
2019-05-20T04:22:54.982Z,73.92
2019-05-20T04:25:26.025Z,73.76
2019-05-20T04:27:57.009Z,73.86
2019-05-20T04:30:29.922Z,73.50
2019-05-20T04:33:00.915Z,73.44
2019-05-20T04:35:32.948Z,73.82
2019-05-20T04:38:04.063Z,74.25
2019-05-20T04:40:35.321Z,73.85
2019-05-20T04:43:06.427Z,73.93
2019-05-20T04:45:37.612Z,74.04
2019-05-20T04:48:28.111Z,74.24
2019-05-20T04:50:59.139Z,74.10
2019-05-20T04:53:30.215Z,74.13
2019-05-20T04:56:01.352Z,74.01
2019-05-20T04:58:32.978Z,74.42
2019-05-20T05:01:05.295Z,74.72
2019-05-20T05:03:36.270Z,74.60
2019-05-20T05:06:07.382Z,74.46
2019-05-20T05:08:38.380Z,74.78
2019-05-20T05:11:10.713Z,74.52
2019-05-20T05:13:41.777Z,74.54
2019-05-20T05:16:13.006Z,74.40
2019-05-20T05:18:44.078Z,75.05
2019-05-20T05:21:15.264Z,74.86
2019-05-20T05:23:58.281Z,74.70
2019-05-20T05:26:19.551Z,74.61
2019-05-20T05:28:50.544Z,74.58
2019-05-20T05:31:22.098Z,74.72
2019-05-20T05:33:54.445Z,74.50
2019-05-20T05:36:26.705Z,74.69
2019-05-20T05:38:58.744Z,74.31
2019-05-20T05:41:29.886Z,74.19
2019-05-20T05:44:00.896Z,74.13
2019-05-20T05:46:33.242Z,74.13
2019-05-20T05:49:04.231Z,74.38
2019-05-20T05:51:35.264Z,74.47
2019-05-20T05:54:06.545Z,74.24
2019-05-20T05:56:37.683Z,74.27
2019-05-20T05:59:08.691Z,74.26
2019-05-20T06:01:39.825Z,74.22
2019-05-20T06:04:11.210Z,74.16
2019-05-20T06:06:42.714Z,74.03
2019-05-20T06:09:13.696Z,74.09
2019-05-20T06:11:44.815Z,73.73
2019-05-20T06:14:15.857Z,73.75
2019-05-20T06:16:46.893Z,73.53
2019-05-20T06:19:17.892Z,73.65
2019-05-20T06:21:49.018Z,73.39
2019-05-20T06:24:20.101Z,73.34
2019-05-20T06:26:51.177Z,72.91
2019-05-20T06:29:22.734Z,72.99
2019-05-20T06:31:53.849Z,73.25
2019-05-20T06:34:25.106Z,73.27
2019-05-20T06:36:58.138Z,73.35
2019-05-20T06:39:29.681Z,73.46
2019-05-20T06:42:00.798Z,73.23
2019-05-20T06:44:31.784Z,72.89
2019-05-20T06:47:03.452Z,72.91
2019-05-20T06:49:34.480Z,72.80
2019-05-20T06:52:05.567Z,72.84
2019-05-20T06:54:36.601Z,73.01
2019-05-20T06:57:07.818Z,72.91
2019-05-20T06:59:40.037Z,73.06
2019-05-20T07:02:11.266Z,72.37
2019-05-20T07:04:42.408Z,72.81
2019-05-20T07:07:20.927Z,73.27
2019-05-20T07:09:46.321Z,73.04
2019-05-20T07:12:17.519Z,72.80
2019-05-20T07:14:48.742Z,72.53
2019-05-20T07:17:19.809Z,72.66
2019-05-20T07:19:50.813Z,72.53
2019-05-20T07:22:22.347Z,72.20
2019-05-20T07:24:53.345Z,72.45
2019-05-20T07:27:24.592Z,72.50
2019-05-20T07:29:55.699Z,72.49
2019-05-20T07:32:26.747Z,72.28
2019-05-20T07:34:57.771Z,72.07
2019-05-20T07:37:28.892Z,72.24
2019-05-20T07:39:59.930Z,71.70
2019-05-20T07:42:30.972Z,71.48
2019-05-20T07:45:02.276Z,71.63
2019-05-20T07:47:33.990Z,71.97
2019-05-20T07:50:05.409Z,71.67
2019-05-20T07:52:36.602Z,71.25
2019-05-20T07:55:08.438Z,71.08
2019-05-20T07:57:41.378Z,71.25
2019-05-20T08:00:12.708Z,71.22
2019-05-20T08:02:43.903Z,71.22
2019-05-20T08:05:15.087Z,71.67
2019-05-20T08:07:52.473Z,71.55
2019-05-20T08:10:19.641Z,71.33
2019-05-20T08:12:50.684Z,71.15
2019-05-20T08:15:22.605Z,71.02
2019-05-20T08:17:54.400Z,71.36
2019-05-20T08:20:26.208Z,71.05
2019-05-20T08:22:57.311Z,70.97
2019-05-20T08:25:28.348Z,71.20
2019-05-20T08:28:02.587Z,71.10
2019-05-20T08:30:35.535Z,71.32
2019-05-20T08:33:07.044Z,70.93
2019-05-20T08:35:38.503Z,71.08
2019-05-20T08:38:10.011Z,70.79
2019-05-20T08:40:42.575Z,71.11
2019-05-20T08:43:13.704Z,71.33
2019-05-20T08:45:44.939Z,71.78
2019-05-20T08:48:16.022Z,72.11
2019-05-20T08:50:47.091Z,72.10
2019-05-20T08:53:18.166Z,72.39
2019-05-20T08:55:50.409Z,73.11
2019-05-20T08:58:22.545Z,72.82
2019-05-20T09:00:53.797Z,72.95
2019-05-20T09:03:24.813Z,73.03
2019-05-20T09:05:55.860Z,72.80
2019-05-20T09:08:26.987Z,72.60
2019-05-20T09:10:58.015Z,72.47
2019-05-20T09:13:29.051Z,72.60
2019-05-20T09:16:00.072Z,73.02
2019-05-20T09:18:31.095Z,73.12
2019-05-20T09:21:02.297Z,73.24
2019-05-20T09:23:33.907Z,73.64
2019-05-20T09:26:05.133Z,73.58
2019-05-20T09:28:36.170Z,73.87
2019-05-20T09:31:07.409Z,73.66
2019-05-20T09:33:38.939Z,73.95
2019-05-20T09:36:10.085Z,73.46
2019-05-20T09:38:41.200Z,73.61
2019-05-20T09:41:12.241Z,73.41
2019-05-20T09:43:43.296Z,73.29
2019-05-20T09:46:14.323Z,73.67
2019-05-20T09:48:45.372Z,73.73
2019-05-20T09:51:16.400Z,73.80
2019-05-20T09:53:47.448Z,73.35
2019-05-20T09:56:19.483Z,73.39
2019-05-20T09:58:50.553Z,73.75
2019-05-20T10:01:22.746Z,73.09
2019-05-20T10:03:53.807Z,73.40
2019-05-20T10:06:24.808Z,72.93
2019-05-20T10:08:55.850Z,72.92
2019-05-20T10:11:26.922Z,72.67
2019-05-20T10:13:57.980Z,72.60
2019-05-20T10:16:29.172Z,72.72
2019-05-20T10:19:00.506Z,72.57
2019-05-20T10:21:31.658Z,72.38
2019-05-20T10:24:04.068Z,72.29
2019-05-20T10:26:36.283Z,72.21
2019-05-20T10:29:07.499Z,72.06
2019-05-20T10:31:39.297Z,72.25
2019-05-20T10:34:10.564Z,71.89
2019-05-20T10:36:41.681Z,72.42
2019-05-20T10:39:12.836Z,72.78
2019-05-20T10:41:43.822Z,73.06
2019-05-20T10:44:14.880Z,73.13
2019-05-20T10:46:45.954Z,72.31
2019-05-20T10:49:17.075Z,72.64
2019-05-20T10:51:48.163Z,72.40
2019-05-20T10:54:19.283Z,72.38
2019-05-20T10:56:50.366Z,72.44
2019-05-20T10:59:21.439Z,72.55
2019-05-20T11:01:52.978Z,72.46
2019-05-20T11:04:24.098Z,72.80
2019-05-20T11:06:55.254Z,72.48
2019-05-20T11:09:26.509Z,72.37
2019-05-20T11:11:57.587Z,72.38
2019-05-20T11:14:28.739Z,72.60
2019-05-20T11:16:59.895Z,72.94
2019-05-20T11:19:31.033Z,72.76
2019-05-20T11:22:02.041Z,73.28
2019-05-20T11:24:34.161Z,73.10
2019-05-20T11:27:05.283Z,73.64
2019-05-20T11:29:36.367Z,73.34
2019-05-20T11:32:07.651Z,72.71
2019-05-20T11:34:38.794Z,72.85
2019-05-20T11:37:09.855Z,72.78
2019-05-20T11:39:40.955Z,72.92
2019-05-20T11:42:12.008Z,72.54
2019-05-20T11:44:43.100Z,72.17
2019-05-20T11:47:14.130Z,72.48
2019-05-20T11:49:45.177Z,72.37
2019-05-20T11:52:16.259Z,72.57
2019-05-20T11:54:47.411Z,72.29
2019-05-20T11:57:18.479Z,72.26
2019-05-20T11:59:49.527Z,72.37
2019-05-20T12:02:20.569Z,72.70
2019-05-20T12:04:51.549Z,72.67
2019-05-20T12:07:22.998Z,73.12
2019-05-20T12:09:53.997Z,72.52
2019-05-20T12:12:25.329Z,72.15
2019-05-20T12:14:56.469Z,72.31
2019-05-20T12:17:27.491Z,72.27
2019-05-20T12:19:58.493Z,71.82
2019-05-20T12:22:29.568Z,71.46
2019-05-20T12:25:00.620Z,70.75
2019-05-20T12:27:31.744Z,71.54
2019-05-20T12:30:02.816Z,71.50
2019-05-20T12:32:34.394Z,71.82
2019-05-20T12:35:06.128Z,72.39
2019-05-20T12:37:37.230Z,72.98
2019-05-20T12:40:09.487Z,73.50
2019-05-20T12:42:40.560Z,73.51
2019-05-20T12:45:11.860Z,73.97
2019-05-20T12:47:42.949Z,74.11
2019-05-20T12:50:14.590Z,74.22
2019-05-20T12:52:45.643Z,74.84
2019-05-20T12:55:17.397Z,74.88
2019-05-20T12:57:48.517Z,75.04
2019-05-20T13:00:20.184Z,74.71
2019-05-20T13:02:51.237Z,74.73
2019-05-20T13:05:23.258Z,75.10
2019-05-20T13:07:54.300Z,75.50
2019-05-20T13:10:30.197Z,75.77
2019-05-20T13:12:58.242Z,75.77
2019-05-20T13:15:29.586Z,76.16
2019-05-20T13:18:00.609Z,76.23
2019-05-20T13:20:31.632Z,76.39
2019-05-20T13:23:04.494Z,76.54
2019-05-20T13:25:35.603Z,77.04
2019-05-20T13:28:06.658Z,77.08
2019-05-20T13:30:38.022Z,76.76
2019-05-20T13:33:09.164Z,76.61
2019-05-20T13:35:40.159Z,76.88
2019-05-20T13:38:11.378Z,76.61
2019-05-20T13:40:47.075Z,76.90
2019-05-20T13:43:15.216Z,77.51
2019-05-20T13:45:48.139Z,77.03
2019-05-20T13:48:18.990Z,76.86
2019-05-20T13:50:49.985Z,76.87
2019-05-20T13:53:21.022Z,76.50
2019-05-20T13:55:52.089Z,76.65
2019-05-20T13:58:23.344Z,76.05
2019-05-20T14:00:54.392Z,76.20
2019-05-20T14:03:25.457Z,76.18
2019-05-20T14:05:56.437Z,75.71
2019-05-20T14:08:28.148Z,75.94
2019-05-20T14:11:04.327Z,76.01
2019-05-20T14:13:34.631Z,76.71
2019-05-20T14:16:05.670Z,77.15
2019-05-20T14:18:36.713Z,76.85
2019-05-20T14:21:07.800Z,76.97
2019-05-20T14:23:38.909Z,76.64
2019-05-20T14:26:09.997Z,76.68
2019-05-20T14:28:41.113Z,76.45
2019-05-20T14:31:12.185Z,76.60
2019-05-20T14:33:43.234Z,76.22
2019-05-20T14:36:36.049Z,76.06
2019-05-20T14:38:47.386Z,76.09
2019-05-20T14:41:21.781Z,76.24
2019-05-20T14:43:51.143Z,76.48
2019-05-20T14:46:23.500Z,76.51
2019-05-20T14:48:54.636Z,76.54
2019-05-20T14:51:25.828Z,76.93
2019-05-20T14:53:56.850Z,76.82
2019-05-20T14:56:27.923Z,77.23
2019-05-20T14:58:58.964Z,77.25
2019-05-20T15:01:30.098Z,76.99
2019-05-20T15:04:01.187Z,76.67
2019-05-20T15:06:32.187Z,76.38
2019-05-20T15:09:04.931Z,76.63
2019-05-20T15:11:38.630Z,76.61
2019-05-20T15:14:08.646Z,76.62
2019-05-20T15:16:41.213Z,76.35
2019-05-20T15:19:12.306Z,76.05
2019-05-20T15:21:43.324Z,75.79
2019-05-20T15:24:14.443Z,75.56
2019-05-20T15:26:45.539Z,75.37
2019-05-20T15:29:27.675Z,75.22
2019-05-20T15:31:49.333Z,75.46
2019-05-20T15:34:20.421Z,75.51
2019-05-20T15:36:51.560Z,75.50
2019-05-20T15:39:23.715Z,75.50
2019-05-20T15:41:54.930Z,75.34
2019-05-20T15:44:26.114Z,75.03
2019-05-20T15:46:57.109Z,74.94
2019-05-20T15:49:28.396Z,75.21
2019-05-20T15:51:59.401Z,75.77
2019-05-20T15:54:30.549Z,75.91
2019-05-20T15:57:01.627Z,75.93
2019-05-20T15:59:45.345Z,76.09
2019-05-20T16:02:05.708Z,76.11
2019-05-20T16:04:37.819Z,75.86
2019-05-20T16:07:08.908Z,75.86
2019-05-20T16:09:40.119Z,75.83
2019-05-20T16:12:12.178Z,75.93
2019-05-20T16:14:43.289Z,75.79
2019-05-20T16:17:14.374Z,75.70
2019-05-20T16:19:45.502Z,75.60
2019-05-20T16:22:16.509Z,75.80
2019-05-20T16:24:47.552Z,75.93
2019-05-20T16:27:18.657Z,75.80
2019-05-20T16:30:05.396Z,75.81
2019-05-20T16:32:23.866Z,76.36
2019-05-20T16:34:54.899Z,76.23
2019-05-20T16:37:26.031Z,75.70
2019-05-20T16:39:57.109Z,75.87
2019-05-20T16:42:28.192Z,76.07
2019-05-20T16:45:00.233Z,76.04
2019-05-20T16:47:31.309Z,76.21
2019-05-20T16:50:02.390Z,75.99
2019-05-20T16:52:34.940Z,75.83
2019-05-20T16:55:06.513Z,75.97
2019-05-20T16:57:39.285Z,75.84
2019-05-20T17:00:29.810Z,75.75
2019-05-20T17:02:44.881Z,75.08
2019-05-20T17:05:16.655Z,75.00
2019-05-20T17:07:47.890Z,74.90
2019-05-20T17:10:19.203Z,74.86
2019-05-20T17:12:50.306Z,74.94
2019-05-20T17:15:21.632Z,75.07
2019-05-20T17:17:52.626Z,75.17
2019-05-20T17:20:24.199Z,75.39
2019-05-20T17:22:55.294Z,75.10
2019-05-20T17:25:26.504Z,75.17
2019-05-20T17:27:57.510Z,75.60
2019-05-20T17:30:28.709Z,75.34
2019-05-20T17:32:59.926Z,75.20
2019-05-20T17:35:31.325Z,75.43
2019-05-20T17:38:02.512Z,75.27
2019-05-20T17:40:33.579Z,75.47
2019-05-20T17:43:05.391Z,75.50
2019-05-20T17:45:36.583Z,75.43
2019-05-20T17:48:07.957Z,75.65
2019-05-20T17:50:39.053Z,75.54
2019-05-20T17:53:10.169Z,75.40
2019-05-20T17:55:41.409Z,75.52
2019-05-20T17:58:13.676Z,75.62
2019-05-20T18:00:45.142Z,75.40
2019-05-20T18:03:16.225Z,75.42
2019-05-20T18:05:47.443Z,75.41
2019-05-20T18:08:18.599Z,75.57
2019-05-20T18:10:50.159Z,75.39
2019-05-20T18:13:21.139Z,75.36
2019-05-20T18:15:52.223Z,75.34
2019-05-20T18:18:24.597Z,75.39
2019-05-20T18:20:56.572Z,75.48
2019-05-20T18:23:27.893Z,75.29
2019-05-20T18:25:58.987Z,75.40
2019-05-20T18:28:29.990Z,75.56
2019-05-20T18:31:01.036Z,75.25
2019-05-20T18:33:32.097Z,75.04
2019-05-20T18:36:03.129Z,74.79
2019-05-20T18:38:35.571Z,74.59
2019-05-20T18:41:07.036Z,75.00
2019-05-20T18:43:38.090Z,75.01
2019-05-20T18:46:09.359Z,74.90
2019-05-20T18:48:40.714Z,74.79
2019-05-20T18:51:11.806Z,74.59
2019-05-20T18:53:42.885Z,74.64
2019-05-20T18:56:13.964Z,74.67
2019-05-20T18:58:45.008Z,74.64
2019-05-20T19:01:19.442Z,74.72
2019-05-20T19:03:48.823Z,74.61
2019-05-20T19:06:19.911Z,74.69
2019-05-20T19:08:51.004Z,74.78
2019-05-20T19:11:22.156Z,74.68
2019-05-20T19:13:54.341Z,74.62
2019-05-20T19:16:25.580Z,74.87
2019-05-20T19:18:56.688Z,74.53
2019-05-20T19:21:28.827Z,74.39
2019-05-20T19:23:59.860Z,74.37
2019-05-20T19:26:30.905Z,74.99
2019-05-20T19:29:01.991Z,74.78
2019-05-20T19:31:33.369Z,74.37
2019-05-20T19:34:05.673Z,74.55
2019-05-20T19:36:36.680Z,74.62
2019-05-20T19:39:08.580Z,74.52
2019-05-20T19:41:41.222Z,74.42
2019-05-20T19:44:13.427Z,74.38
2019-05-20T19:46:44.662Z,74.35
2019-05-20T19:49:15.930Z,74.66
2019-05-20T19:51:46.998Z,74.57
2019-05-20T19:54:18.027Z,74.60
2019-05-20T19:56:49.031Z,74.50
2019-05-20T19:59:20.509Z,74.54
2019-05-20T20:01:51.497Z,74.56
2019-05-20T20:04:22.539Z,74.63
2019-05-20T20:06:53.870Z,74.77
2019-05-20T20:09:24.973Z,74.76
2019-05-20T20:11:56.136Z,74.46
2019-05-20T20:14:27.201Z,74.02
2019-05-20T20:16:58.272Z,73.99
2019-05-20T20:19:29.433Z,74.18
2019-05-20T20:22:00.421Z,74.28
2019-05-20T20:24:31.460Z,74.44
2019-05-20T20:27:02.539Z,74.60
2019-05-20T20:29:33.578Z,74.41
2019-05-20T20:32:05.745Z,74.20
2019-05-20T20:34:36.862Z,74.41
2019-05-20T20:37:08.178Z,74.35
2019-05-20T20:39:39.231Z,74.51
2019-05-20T20:42:10.303Z,74.59
2019-05-20T20:44:41.441Z,74.31
2019-05-20T20:47:12.512Z,74.94
2019-05-20T20:49:43.636Z,74.54
2019-05-20T20:52:14.719Z,74.40
2019-05-20T20:54:45.766Z,74.13
2019-05-20T20:57:16.938Z,74.13
2019-05-20T20:59:50.263Z,74.34
2019-05-20T21:02:20.835Z,74.78
2019-05-20T21:04:52.847Z,75.20
2019-05-20T21:07:24.471Z,75.26
2019-05-20T21:09:55.856Z,75.00
2019-05-20T21:12:26.867Z,75.21
2019-05-20T21:14:58.206Z,75.02
2019-05-20T21:17:29.298Z,75.32
2019-05-20T21:20:00.356Z,75.19
2019-05-20T21:22:31.354Z,75.19
2019-05-20T21:25:02.395Z,75.25
2019-05-20T21:27:33.488Z,75.06
2019-05-20T21:30:07.020Z,75.05
2019-05-20T21:32:38.002Z,75.16
2019-05-20T21:35:09.295Z,75.21
2019-05-20T21:37:40.355Z,75.49
2019-05-20T21:40:11.835Z,75.73
2019-05-20T21:42:42.868Z,75.51
2019-05-20T21:45:14.203Z,75.86
2019-05-20T21:47:45.194Z,75.72
2019-05-20T21:50:16.422Z,75.83
2019-05-20T21:52:47.444Z,75.85
2019-05-20T21:55:18.584Z,75.62
2019-05-20T21:57:49.713Z,75.60
2019-05-20T22:00:27.694Z,75.55
2019-05-20T22:03:00.329Z,75.22
2019-05-20T22:05:31.347Z,75.17
2019-05-20T22:08:04.260Z,75.42
2019-05-20T22:10:36.490Z,75.22
2019-05-20T22:13:07.545Z,75.14
2019-05-20T22:15:38.696Z,75.48
2019-05-20T22:18:09.711Z,75.71
2019-05-20T22:20:42.110Z,75.57
2019-05-20T22:23:31.263Z,75.42
2019-05-20T22:26:02.373Z,75.79
2019-05-20T22:28:34.485Z,76.07
2019-05-20T22:31:06.178Z,76.03
2019-05-20T22:33:41.805Z,75.72
2019-05-20T22:36:09.886Z,75.69
2019-05-20T22:38:40.910Z,75.79
2019-05-20T22:41:12.056Z,76.08
2019-05-20T22:43:43.095Z,75.95
2019-05-20T22:46:14.142Z,76.08
2019-05-20T22:48:45.171Z,76.29
2019-05-20T22:51:16.455Z,76.16
2019-05-20T22:53:47.524Z,76.15
2019-05-20T22:56:18.667Z,76.14
2019-05-20T22:58:49.679Z,75.80
2019-05-20T23:01:20.720Z,75.92
2019-05-20T23:03:56.465Z,76.39
2019-05-20T23:06:24.923Z,76.14
2019-05-20T23:08:56.915Z,76.54
2019-05-20T23:11:27.951Z,76.44
2019-05-20T23:13:58.961Z,76.29
2019-05-20T23:16:30.012Z,76.32
2019-05-20T23:19:01.098Z,76.83
2019-05-20T23:21:32.570Z,76.30
2019-05-20T23:24:03.708Z,76.38
2019-05-20T23:26:34.809Z,76.14
2019-05-20T23:29:06.538Z,76.00
2019-05-20T23:31:37.638Z,76.28
2019-05-20T23:34:12.706Z,76.37
2019-05-20T23:36:41.691Z,75.96
2019-05-20T23:39:12.718Z,75.97
2019-05-20T23:41:43.805Z,75.82
2019-05-20T23:44:14.858Z,75.54
2019-05-20T23:46:45.897Z,75.75
2019-05-20T23:49:16.951Z,75.66
2019-05-20T23:51:48.053Z,75.81
2019-05-20T23:54:19.097Z,76.13
2019-05-20T23:56:50.126Z,75.81
2019-05-20T23:59:21.165Z,75.70
